Terminal Aerodrome Forecast
Issued by NWS

Home | Current Version | Previous Version | Text Only | Print | Product List | Glossary Off
Versions: 1 2 3 4 5 6 7 8 9 10 11 12 13 14 15 16 17 18

810
FTUS41 KCLE 260314 AAA
TAFFDY
TAF AMD
KFDY 260314Z 2603/2624 14008KT P6SM BKN250
     FM260600 16006KT P6SM VCSH BKN100
     FM260900 19008KT 6SM -SHRA OVC035
     FM261300 27012KT 5SM -SHRA OVC025
     FM261700 27012G20KT P6SM BKN100
     FM262200 27010KT P6SM SCT100=

USA.gov is the U.S. government's official web portal to all federal, state and local government web resources and services.